Date,TemperatureHighF,TemperatureAvgF,TemperatureLowF,DewpointHighF,DewpointAvgF,DewpointLowF,HumidityHigh,HumidityAvg,HumidityLow,PressureMaxIn,PressureMinIn,WindSpeedMaxMPH,WindSpeedAvgMPH,GustSpeedMaxMPH,PrecipitationSumIn
2013-2-1,53,46,41,49,43,39,95,89,75,30.36,30.20,25,10,36,0.01
2013-2-2,55,48,45,47,43,39,92,83,66,30.34,30.19,23,14,36,0.00
2013-2-3,49,48,46,46,45,44,93,90,86,30.34,30.24,10,3,12,0.00
2013-2-4,49,46,43,46,44,41,93,90,85,30.25,29.99,28,9,34,0.00
2013-2-5,51,48,46,49,45,43,93,91,87,30.10,29.94,29,17,36,0.37
2013-2-6,49,47,42,46,44,39,93,88,79,30.12,29.85,34,16,52,0.48
2013-2-7,44,42,38,42,39,36,93,90,85,30.15,29.96,15,7,25,0.47
2013-2-8,47,41,33,43,37,31,94,88,81,30.30,30.14,22,8,28,0.01
2013-2-9,47,44,41,45,41,36,96,89,80,30.33,30.29,14,1,16,0.01
2013-2-10,47,45,43,45,43,40,96,91,84,30.35,30.31,14,5,19,0.01
2013-2-11,48,46,43,46,42,38,96,87,75,30.43,30.34,10,4,14,0.04
2013-2-12,50,48,47,49,47,46,97,97,96,30.53,30.43,9,4,12,0.12
2013-2-13,50,47,45,49,46,44,97,97,95,30.53,30.48,9,3,12,0.10
2013-2-14,52,46,41,49,44,39,96,93,87,30.57,30.44,17,6,25,0.02
2013-2-15,54,48,43,49,45,42,96,89,76,30.45,30.22,22,7,31,0.01
2013-2-16,49,47,42,47,45,40,95,93,86,30.34,30.27,18,7,22,0.06
2013-2-17,47,42,38,41,39,34,93,86,77,30.33,30.10,10,4,16,0.08
2013-2-18,46,41,37,43,38,34,92,90,86,30.10,29.72,23,8,32,0.37
2013-2-19,47,43,38,43,39,36,93,87,81,30.03,29.65,17,7,24,0.59
2013-2-20,47,43,38,44,40,36,92,90,85,30.15,30.03,23,7,27,0.09
2013-2-21,46,45,43,45,42,38,95,88,78,30.27,30.15,24,12,30,0.32
2013-2-22,48,46,42,47,44,38,97,93,84,30.23,30.00,35,20,179,1.21
2013-2-23,47,44,39,42,39,36,90,84,79,30.46,30.17,26,11,32,0.09
2013-2-24,49,44,38,44,39,35,92,85,77,30.46,30.11,29,10,44,0.12
2013-2-25,47,45,38,44,41,35,94,85,75,30.42,30.09,29,12,44,0.54
2013-2-26,49,42,35,43,37,33,91,85,75,30.42,30.27,19,8,25,0.01
2013-2-27,51,47,43,49,44,40,94,91,86,30.30,30.21,24,8,42,0.18
2013-2-28,50,50,49,49,49,48,97,96,94,30.48,30.21,27,21,40,1.82